臺北終端管制區 - 桃園掃描雷達席

METAR RCTP 161530Z 04016KT 9999 FEW010 BKN016 17/15 Q1021 NOSIG RMK A3017=

站台狀態:Online
最後更新:2018-12-16 23:30:02